Time,TemperatureF,DewpointF,PressureIn,WindDirection,WindDirectionDegrees,WindSpeedMPH,WindSpeedGustMPH,Humidity,HourlyPrecipIn,Conditions,Clouds,dailyrainin,SoftwareType,DateUTC
2013-03-15 00:00:00,46.0,38.2,30.10,SSE,153,7.0,18.0,74,0.00,,,0.00,Wunderground v.1.15,2013-03-15 05:00:00,
2013-03-15 00:05:00,46.2,38.0,30.10,SSE,152,7.0,18.0,73,0.00,,,0.00,Wunderground v.1.15,2013-03-15 05:05:00,
2013-03-15 00:10:00,46.3,38.1,30.10,SSE,152,7.0,18.0,73,0.00,,,0.00,Wunderground v.1.15,2013-03-15 05:10:00,
2013-03-15 00:15:00,46.5,38.3,30.10,SSE,152,7.0,18.0,73,0.00,,,0.00,Wunderground v.1.15,2013-03-15 05:15:00,
2013-03-15 00:25:00,46.4,38.2,30.10,SSE,159,6.0,18.0,73,0.00,,,0.00,Wunderground v.1.15,2013-03-15 05:25:00,
2013-03-15 00:30:00,45.6,37.8,30.10,SSE,159,5.0,18.0,74,0.00,,,0.00,Wunderground v.1.15,2013-03-15 05:30:00,
2013-03-15 00:35:00,45.0,37.6,30.10,SSE,159,4.0,18.0,75,0.00,,,0.00,Wunderground v.1.15,2013-03-15 05:35:00,
2013-03-15 00:40:00,44.7,37.9,30.09,SSE,159,4.0,4.0,77,0.00,,,0.00,Wunderground v.1.15,2013-03-15 05:40:00,
2013-03-15 00:45:00,44.7,37.6,30.09,SSE,159,4.0,5.0,76,0.00,,,0.00,Wunderground v.1.15,2013-03-15 05:45:00,
2013-03-15 00:50:00,44.7,37.6,30.09,SSE,165,5.0,18.0,76,0.00,,,0.00,Wunderground v.1.15,2013-03-15 05:50:00,
2013-03-15 01:00:00,44.8,37.4,30.09,SSE,165,5.0,18.0,75,0.00,,,0.00,Wunderground v.1.15,2013-03-15 06:00:00,
2013-03-15 01:05:00,45.0,37.6,30.09,SSE,165,5.0,18.0,75,0.00,,,0.00,Wunderground v.1.15,2013-03-15 06:05:00,
2013-03-15 01:10:00,45.1,37.6,30.09,SSE,165,5.0,18.0,75,0.00,,,0.00,Wunderground v.1.15,2013-03-15 06:10:00,
2013-03-15 01:15:00,44.9,37.5,30.08,SSE,165,5.0,18.0,75,0.00,,,0.00,Wunderground v.1.15,2013-03-15 06:15:00,
2013-03-15 01:20:00,44.9,37.5,30.08,SSE,167,5.0,18.0,75,0.00,,,0.00,Wunderground v.1.15,2013-03-15 06:20:00,
2013-03-15 01:30:00,45.2,37.4,30.08,SSE,165,8.0,18.0,74,0.00,,,0.00,Wunderground v.1.15,2013-03-15 06:30:00,
2013-03-15 01:35:00,45.2,37.4,30.07,SSE,163,8.0,18.0,74,0.00,,,0.00,Wunderground v.1.15,2013-03-15 06:35:00,
2013-03-15 01:40:00,45.0,37.2,30.07,SSE,163,7.0,7.0,74,0.00,,,0.00,Wunderground v.1.15,2013-03-15 06:40:00,
2013-03-15 01:45:00,44.2,36.8,30.07,SSE,165,7.0,8.0,75,0.00,,,0.00,Wunderground v.1.15,2013-03-15 06:45:00,
2013-03-15 01:50:00,43.7,36.6,30.07,SSE,165,7.0,7.0,76,0.00,,,0.00,Wunderground v.1.15,2013-03-15 06:50:00,
2013-03-15 01:55:00,43.0,36.3,30.07,SSE,165,6.0,18.0,77,0.00,,,0.00,Wunderground v.1.15,2013-03-15 06:55:00,
2013-03-15 02:04:00,41.8,35.4,30.06,SSE,166,5.0,18.0,78,0.00,,,0.00,Wunderground v.1.15,2013-03-15 07:04:00,
2013-03-15 02:09:00,41.6,35.9,30.05,SSE,167,6.0,18.0,80,0.00,,,0.00,Wunderground v.1.15,2013-03-15 07:09:00,
2013-03-15 02:14:00,41.7,36.0,30.05,SSE,167,6.0,18.0,80,0.00,,,0.00,Wunderground v.1.15,2013-03-15 07:14:00,
2013-03-15 02:19:00,41.5,35.8,30.05,SSE,167,6.0,6.0,80,0.00,,,0.00,Wunderground v.1.15,2013-03-15 07:19:00,
2013-03-15 02:24:00,41.1,35.4,30.04,SSE,167,5.0,7.0,80,0.00,,,0.00,Wunderground v.1.15,2013-03-15 07:24:00,
2013-03-15 02:30:00,40.9,35.5,30.04,SSE,167,5.0,18.0,81,0.00,,,0.00,Wunderground v.1.15,2013-03-15 07:30:00,
2013-03-15 02:35:00,40.9,35.5,30.04,SSE,167,5.0,18.0,81,0.00,,,0.00,Wunderground v.1.15,2013-03-15 07:35:00,
2013-03-15 02:40:00,41.1,35.7,30.04,South,169,6.0,18.0,81,0.00,,,0.00,Wunderground v.1.15,2013-03-15 07:40:00,
2013-03-15 02:45:00,41.0,35.6,30.03,South,169,6.0,18.0,81,0.00,,,0.00,Wunderground v.1.15,2013-03-15 07:45:00,
2013-03-15 02:50:00,41.2,35.8,30.03,South,169,6.0,18.0,81,0.00,,,0.00,Wunderground v.1.15,2013-03-15 07:50:00,
2013-03-15 02:55:00,41.0,35.6,30.03,South,169,6.0,18.0,81,0.00,,,0.00,Wunderground v.1.15,2013-03-15 07:55:00,
2013-03-15 03:05:00,40.3,35.2,30.02,South,171,6.0,18.0,82,0.00,,,0.00,Wunderground v.1.15,2013-03-15 08:05:00,
2013-03-15 03:10:00,40.5,35.4,30.02,South,173,7.0,7.0,82,0.00,,,0.00,Wunderground v.1.15,2013-03-15 08:10:00,
2013-03-15 03:15:00,41.1,35.7,30.02,South,173,7.0,18.0,81,0.00,,,0.00,Wunderground v.1.15,2013-03-15 08:15:00,
2013-03-15 03:20:00,41.4,35.7,30.02,South,176,7.0,18.0,80,0.00,,,0.00,Wunderground v.1.15,2013-03-15 08:20:00,
2013-03-15 03:25:00,41.4,35.7,30.02,South,173,7.0,18.0,80,0.00,,,0.00,Wunderground v.1.15,2013-03-15 08:25:00,
2013-03-15 03:30:00,42.0,36.3,30.01,South,171,7.0,18.0,80,0.00,,,0.00,Wunderground v.1.15,2013-03-15 08:30:00,
2013-03-15 03:40:00,42.8,36.4,30.00,South,177,8.0,18.0,78,0.00,,,0.00,Wunderground v.1.15,2013-03-15 08:40:00,
2013-03-15 03:45:00,43.1,36.7,30.00,South,174,8.0,18.0,78,0.00,,,0.00,Wunderground v.1.15,2013-03-15 08:45:00,
2013-03-15 03:50:00,43.2,36.5,30.00,South,176,8.0,18.0,77,0.00,,,0.00,Wunderground v.1.15,2013-03-15 08:50:00,
2013-03-15 03:55:00,43.2,36.5,30.00,South,176,9.0,18.0,77,0.00,,,0.00,Wunderground v.1.15,2013-03-15 08:55:00,
2013-03-15 04:00:00,43.2,36.5,30.00,South,177,8.0,18.0,77,0.00,,,0.00,Wunderground v.1.15,2013-03-15 09:00:00,
2013-03-15 04:05:00,43.2,36.5,29.99,South,177,8.0,18.0,77,0.00,,,0.00,Wunderground v.1.15,2013-03-15 09:05:00,
2013-03-15 04:10:00,42.7,36.3,29.99,South,178,8.0,18.0,78,0.00,,,0.00,Wunderground v.1.15,2013-03-15 09:10:00,
2013-03-15 04:15:00,42.4,36.0,29.99,South,175,8.0,18.0,78,0.00,,,0.00,Wunderground v.1.15,2013-03-15 09:15:00,
2013-03-15 04:20:00,42.0,36.0,29.99,South,173,7.0,18.0,79,0.00,,,0.00,Wunderground v.1.15,2013-03-15 09:20:00,
2013-03-15 04:25:00,41.3,35.6,29.98,South,173,7.0,18.0,80,0.00,,,0.00,Wunderground v.1.15,2013-03-15 09:25:00,
2013-03-15 04:30:00,41.0,35.3,29.98,South,173,7.0,18.0,80,0.00,,,0.00,Wunderground v.1.15,2013-03-15 09:30:00,
2013-03-15 04:35:00,40.8,35.4,29.97,South,176,6.0,18.0,81,0.00,,,0.00,Wunderground v.1.15,2013-03-15 09:35:00,
2013-03-15 04:45:00,40.8,35.4,29.97,South,187,9.0,18.0,81,0.00,,,0.00,Wunderground v.1.15,2013-03-15 09:45:00,
2013-03-15 04:50:00,40.8,35.4,29.96,South,185,9.0,9.0,81,0.00,,,0.00,Wunderground v.1.15,2013-03-15 09:50:00,
2013-03-15 04:55:00,41.0,35.3,29.96,South,187,9.0,10.0,80,0.00,,,0.00,Wunderground v.1.15,2013-03-15 09:55:00,
2013-03-15 05:00:00,41.1,35.4,29.96,South,185,9.0,18.0,80,0.00,,,0.00,Wunderground v.1.15,2013-03-15 10:00:00,
2013-03-15 05:05:00,41.0,35.0,29.96,South,188,9.0,18.0,79,0.00,,,0.00,Wunderground v.1.15,2013-03-15 10:05:00,
2013-03-15 05:10:00,40.9,35.2,29.95,South,186,9.0,9.0,80,0.00,,,0.00,Wunderground v.1.15,2013-03-15 10:10:00,
2013-03-15 05:15:00,41.1,35.4,29.95,South,179,8.0,18.0,80,0.00,,,0.00,Wunderground v.1.15,2013-03-15 10:15:00,
2013-03-15 05:20:00,41.4,35.4,29.94,South,183,8.0,18.0,79,0.00,,,0.00,Wunderground v.1.15,2013-03-15 10:20:00,
2013-03-15 05:25:00,41.2,35.2,29.94,South,186,9.0,18.0,79,0.00,,,0.00,Wunderground v.1.15,2013-03-15 10:25:00,
2013-03-15 05:30:00,40.9,35.2,29.94,South,183,8.0,8.0,80,0.00,,,0.00,Wunderground v.1.15,2013-03-15 10:30:00,
2013-03-15 05:35:00,40.8,35.1,29.94,South,183,7.0,18.0,80,0.00,,,0.00,Wunderground v.1.15,2013-03-15 10:35:00,
2013-03-15 05:40:00,40.3,34.6,29.93,South,183,7.0,18.0,80,0.00,,,0.00,Wunderground v.1.15,2013-03-15 10:40:00,
2013-03-15 05:50:00,40.3,34.6,29.93,South,178,7.0,7.0,80,0.00,,,0.00,Wunderground v.1.15,2013-03-15 10:50:00,
2013-03-15 05:55:00,40.2,34.8,29.93,South,174,6.0,18.0,81,0.00,,,0.00,Wunderground v.1.15,2013-03-15 10:55:00,
2013-03-15 06:00:00,40.5,35.1,29.92,South,175,6.0,18.0,81,0.00,,,0.00,Wunderground v.1.15,2013-03-15 11:00:00,
2013-03-15 06:05:00,40.9,35.2,29.92,South,171,7.0,18.0,80,0.00,,,0.00,Wunderground v.1.15,2013-03-15 11:05:00,
2013-03-15 06:10:00,41.1,35.4,29.92,South,177,7.0,18.0,80,0.00,,,0.00,Wunderground v.1.15,2013-03-15 11:10:00,
2013-03-15 06:20:00,41.2,35.5,29.92,South,183,7.0,7.0,80,0.00,,,0.00,Wunderground v.1.15,2013-03-15 11:20:00,
2013-03-15 06:25:00,41.1,35.4,29.91,South,186,7.0,9.0,80,0.00,,,0.00,Wunderground v.1.15,2013-03-15 11:25:00,
2013-03-15 06:30:00,40.9,35.2,29.91,SSW,194,8.0,18.0,80,0.00,,,0.00,Wunderground v.1.15,2013-03-15 11:30:00,
2013-03-15 06:35:00,40.6,35.2,29.91,South,188,9.0,18.0,81,0.00,,,0.00,Wunderground v.1.15,2013-03-15 11:35:00,
2013-03-15 06:40:00,40.3,34.9,29.91,SSW,192,10.0,10.0,81,0.00,,,0.00,Wunderground v.1.15,2013-03-15 11:40:00,
2013-03-15 06:45:00,40.1,35.0,29.91,SSW,192,9.0,18.0,82,0.00,,,0.00,Wunderground v.1.15,2013-03-15 11:45:00,
2013-03-15 06:55:00,40.2,35.1,29.90,South,184,9.0,18.0,82,0.00,,,0.00,Wunderground v.1.15,2013-03-15 11:55:00,
2013-03-15 07:00:00,40.9,35.8,29.89,South,174,9.0,18.0,82,0.00,,,0.00,Wunderground v.1.15,2013-03-15 12:00:00,
2013-03-15 07:05:00,41.0,35.6,29.89,South,171,8.0,18.0,81,0.00,,,0.00,Wunderground v.1.15,2013-03-15 12:05:00,
2013-03-15 07:10:00,41.3,35.9,29.89,South,176,9.0,9.0,81,0.00,,,0.00,Wunderground v.1.15,2013-03-15 12:10:00,
2013-03-15 07:15:00,41.6,36.2,29.89,South,178,9.0,18.0,81,0.00,,,0.00,Wunderground v.1.15,2013-03-15 12:15:00,
2013-03-15 07:25:00,41.8,36.4,29.89,SSW,207,9.0,18.0,81,0.00,,,0.00,Wunderground v.1.15,2013-03-15 12:25:00,
2013-03-15 07:30:00,41.6,35.9,29.89,SSW,211,8.0,18.0,80,0.00,,,0.00,Wunderground v.1.15,2013-03-15 12:30:00,
2013-03-15 07:35:00,41.2,36.1,29.89,SW,223,7.0,18.0,82,0.00,,,0.00,Wunderground v.1.15,2013-03-15 12:35:00,
2013-03-15 07:40:00,41.1,36.0,29.89,SW,225,8.0,18.0,82,0.00,,,0.00,Wunderground v.1.15,2013-03-15 12:40:00,
2013-03-15 07:45:00,41.0,35.9,29.89,SW,232,9.0,18.0,82,0.00,,,0.00,Wunderground v.1.15,2013-03-15 12:45:00,
2013-03-15 07:50:00,41.2,36.1,29.88,SW,232,9.0,18.0,82,0.00,,,0.00,Wunderground v.1.15,2013-03-15 12:50:00,
2013-03-15 07:59:00,41.3,36.2,29.88,SW,222,9.0,9.0,82,0.00,,,0.00,Wunderground v.1.15,2013-03-15 12:59:00,
2013-03-15 08:04:00,41.1,36.3,29.88,SW,215,7.0,18.0,83,0.00,,,0.00,Wunderground v.1.15,2013-03-15 13:04:00,
2013-03-15 08:09:00,40.8,36.0,29.87,SSW,204,7.0,18.0,83,0.00,,,0.00,Wunderground v.1.15,2013-03-15 13:09:00,
2013-03-15 08:15:00,40.9,36.4,29.87,SSW,212,8.0,18.0,84,0.00,,,0.00,Wunderground v.1.15,2013-03-15 13:15:00,
2013-03-15 08:20:00,41.5,37.0,29.87,SW,215,9.0,9.0,84,0.00,,,0.00,Wunderground v.1.15,2013-03-15 13:20:00,
2013-03-15 08:29:00,41.9,36.8,29.86,SSW,209,8.0,18.0,82,0.00,,,0.00,Wunderground v.1.15,2013-03-15 13:29:00,
2013-03-15 08:34:00,41.9,37.1,29.86,SW,221,8.0,18.0,83,0.00,,,0.00,Wunderground v.1.15,2013-03-15 13:34:00,
2013-03-15 08:39:00,42.4,37.3,29.87,WSW,237,10.0,18.0,82,0.00,,,0.00,Wunderground v.1.15,2013-03-15 13:39:00,
2013-03-15 08:44:00,43.4,37.6,29.86,WSW,245,11.0,18.0,80,0.00,,,0.00,Wunderground v.1.15,2013-03-15 13:44:00,
2013-03-15 08:50:00,43.7,37.9,29.86,WSW,240,10.0,10.0,80,0.00,,,0.00,Wunderground v.1.15,2013-03-15 13:50:00,
2013-03-15 08:55:00,44.1,38.3,29.86,WSW,244,10.0,18.0,80,0.00,,,0.00,Wunderground v.1.15,2013-03-15 13:55:00,
2013-03-15 09:04:00,45.9,39.1,29.86,WSW,248,12.0,18.0,77,0.00,,,0.00,Wunderground v.1.15,2013-03-15 14:04:00,
2013-03-15 09:09:00,46.5,39.7,29.86,WSW,242,13.0,18.0,77,0.00,,,0.00,Wunderground v.1.15,2013-03-15 14:09:00,
2013-03-15 09:14:00,46.9,39.7,29.86,WSW,249,13.0,18.0,76,0.00,,,0.00,Wunderground v.1.15,2013-03-15 14:14:00,
2013-03-15 09:19:00,47.2,40.0,29.86,WSW,247,13.0,18.0,76,0.00,,,0.00,Wunderground v.1.15,2013-03-15 14:19:00,
2013-03-15 09:25:00,47.5,40.0,29.86,WSW,255,14.0,18.0,75,0.00,,,0.00,Wunderground v.1.15,2013-03-15 14:25:00,
2013-03-15 09:30:00,47.9,40.0,29.86,WSW,251,14.0,18.0,74,0.00,,,0.00,Wunderground v.1.15,2013-03-15 14:30:00,
2013-03-15 09:35:00,48.5,40.2,29.85,WSW,252,14.0,18.0,73,0.00,,,0.00,Wunderground v.1.15,2013-03-15 14:35:00,
2013-03-15 09:44:00,49.9,40.9,29.85,West,264,13.0,18.0,71,0.00,,,0.00,Wunderground v.1.15,2013-03-15 14:44:00,
2013-03-15 09:49:00,50.7,40.9,29.85,WSW,257,13.0,13.0,69,0.00,,,0.00,Wunderground v.1.15,2013-03-15 14:49:00,
2013-03-15 09:54:00,51.1,40.9,29.86,WSW,254,13.0,14.0,68,0.00,,,0.00,Wunderground v.1.15,2013-03-15 14:54:00,
2013-03-15 09:59:00,51.6,41.0,29.85,West,265,13.0,18.0,67,0.00,,,0.00,Wunderground v.1.15,2013-03-15 14:59:00,
2013-03-15 10:05:00,52.3,41.7,29.85,West,265,13.0,18.0,67,0.00,,,0.00,Wunderground v.1.15,2013-03-15 15:05:00,
2013-03-15 10:10:00,53.1,40.8,29.85,West,275,12.0,18.0,63,0.00,,,0.00,Wunderground v.1.15,2013-03-15 15:10:00,
2013-03-15 10:15:00,53.8,40.7,29.85,West,280,13.0,18.0,61,0.00,,,0.00,Wunderground v.1.15,2013-03-15 15:15:00,
2013-03-15 10:20:00,54.4,41.2,29.85,West,273,14.0,14.0,61,0.00,,,0.00,Wunderground v.1.15,2013-03-15 15:20:00,
2013-03-15 10:25:00,54.8,41.2,29.85,West,281,12.0,18.0,60,0.00,,,0.00,Wunderground v.1.15,2013-03-15 15:25:00,
2013-03-15 10:30:00,55.2,41.1,29.85,West,275,11.0,18.0,59,0.00,,,0.00,Wunderground v.1.15,2013-03-15 15:30:00,
2013-03-15 10:40:00,56.4,42.7,29.85,WNW,285,11.0,11.0,60,0.00,,,0.00,Wunderground v.1.15,2013-03-15 15:40:00,
2013-03-15 10:45:00,57.0,42.4,29.84,WNW,294,10.0,18.0,58,0.00,,,0.00,Wunderground v.1.15,2013-03-15 15:45:00,
2013-03-15 10:50:00,57.9,42.8,29.84,WNW,284,10.0,10.0,57,0.00,,,0.00,Wunderground v.1.15,2013-03-15 15:50:00,
2013-03-15 10:55:00,58.4,41.8,29.84,WNW,292,9.0,18.0,54,0.00,,,0.00,Wunderground v.1.15,2013-03-15 15:55:00,
2013-03-15 11:00:00,58.6,42.5,29.84,WNW,300,9.0,9.0,55,0.00,,,0.00,Wunderground v.1.15,2013-03-15 16:00:00,
2013-03-15 11:10:00,59.5,42.8,29.83,NW,307,8.0,8.0,54,0.00,,,0.00,Wunderground v.1.15,2013-03-15 16:10:00,
2013-03-15 11:15:00,60.2,43.0,29.83,WNW,293,9.0,9.0,53,0.00,,,0.00,Wunderground v.1.15,2013-03-15 16:15:00,
2013-03-15 11:20:00,61.2,43.4,29.83,NW,306,7.0,7.0,52,0.00,,,0.00,Wunderground v.1.15,2013-03-15 16:20:00,
2013-03-15 11:25:00,61.6,43.3,29.82,WNW,298,6.0,18.0,51,0.00,,,0.00,Wunderground v.1.15,2013-03-15 16:25:00,
2013-03-15 11:30:00,62.3,43.9,29.82,WNW,296,7.0,18.0,51,0.00,,,0.00,Wunderground v.1.15,2013-03-15 16:30:00,
2013-03-15 11:35:00,62.9,43.4,29.82,WNW,284,7.0,18.0,49,0.00,,,0.00,Wunderground v.1.15,2013-03-15 16:35:00,
2013-03-15 11:45:00,64.0,42.8,29.82,WNW,300,7.0,18.0,46,0.00,,,0.00,Wunderground v.1.15,2013-03-15 16:45:00,
2013-03-15 11:50:00,65.0,43.1,29.82,WNW,286,6.0,6.0,45,0.00,,,0.00,Wunderground v.1.15,2013-03-15 16:50:00,
2013-03-15 11:55:00,65.7,42.6,29.82,WNW,287,5.0,18.0,43,0.00,,,0.00,Wunderground v.1.15,2013-03-15 16:55:00,
2013-03-15 12:00:00,65.9,42.1,29.82,WNW,299,4.0,4.0,42,0.00,,,0.00,Wunderground v.1.15,2013-03-15 17:00:00,
2013-03-15 12:05:00,66.1,42.3,29.82,WNW,299,4.0,5.0,42,0.00,,,0.00,Wunderground v.1.15,2013-03-15 17:05:00,
2013-03-15 12:15:00,66.5,43.3,29.81,WNW,299,3.0,5.0,43,0.00,,,0.00,Wunderground v.1.15,2013-03-15 17:15:00,
2013-03-15 12:20:00,67.0,41.9,29.81,WNW,296,3.0,3.0,40,0.00,,,0.00,Wunderground v.1.15,2013-03-15 17:20:00,
2013-03-15 12:25:00,68.0,42.8,29.81,WNW,301,3.0,6.0,40,0.00,,,0.00,Wunderground v.1.15,2013-03-15 17:25:00,
2013-03-15 12:30:00,68.8,42.1,29.81,WNW,301,2.0,18.0,38,0.00,,,0.00,Wunderground v.1.15,2013-03-15 17:30:00,
2013-03-15 12:35:00,69.4,44.7,29.81,WNW,301,2.0,18.0,41,0.00,,,0.00,Wunderground v.1.15,2013-03-15 17:35:00,
2013-03-15 12:40:00,69.9,42.4,29.81,WNW,294,1.0,18.0,37,0.00,,,0.00,Wunderground v.1.15,2013-03-15 17:40:00,
2013-03-15 12:50:00,70.2,42.7,29.81,WNW,294,2.0,2.0,37,0.00,,,0.00,Wunderground v.1.15,2013-03-15 17:50:00,
2013-03-15 12:55:00,70.6,41.6,29.81,WNW,294,2.0,4.0,35,0.00,,,0.00,Wunderground v.1.15,2013-03-15 17:55:00,
2013-03-15 13:00:00,70.7,43.1,29.81,WNW,294,3.0,18.0,37,0.00,,,0.00,Wunderground v.1.15,2013-03-15 18:00:00,
2013-03-15 13:05:00,71.1,42.8,29.81,WNW,298,3.0,18.0,36,0.00,,,0.00,Wunderground v.1.15,2013-03-15 18:05:00,
2013-03-15 13:10:00,71.5,43.1,29.81,NW,304,2.0,18.0,36,0.00,,,0.00,Wunderground v.1.15,2013-03-15 18:10:00,
2013-03-15 13:19:00,71.1,42.0,29.81,NNW,347,3.0,18.0,35,0.00,,,0.00,Wunderground v.1.15,2013-03-15 18:19:00,
2013-03-15 13:24:00,70.9,42.6,29.80,NNW,347,2.0,18.0,36,0.00,,,0.00,Wunderground v.1.15,2013-03-15 18:24:00,
2013-03-15 13:29:00,71.0,42.0,29.80,NNW,348,2.0,18.0,35,0.00,,,0.00,Wunderground v.1.15,2013-03-15 18:29:00,
2013-03-15 13:34:00,71.0,41.2,29.80,NNW,348,2.0,18.0,34,0.00,,,0.00,Wunderground v.1.15,2013-03-15 18:34:00,
2013-03-15 13:39:00,70.8,41.8,29.79,North,355,3.0,18.0,35,0.00,,,0.00,Wunderground v.1.15,2013-03-15 18:39:00,
2013-03-15 13:44:00,70.7,41.7,29.79,North,355,3.0,18.0,35,0.00,,,0.00,Wunderground v.1.15,2013-03-15 18:44:00,
2013-03-15 13:50:00,70.5,42.2,29.79,North,355,2.0,18.0,36,0.00,,,0.00,Wunderground v.1.15,2013-03-15 18:50:00,
2013-03-15 13:55:00,70.2,42.0,29.78,North,355,3.0,18.0,36,0.00,,,0.00,Wunderground v.1.15,2013-03-15 18:55:00,
2013-03-15 14:00:00,70.1,42.6,29.78,North,355,3.0,3.0,37,0.00,,,0.00,Wunderground v.1.15,2013-03-15 19:00:00,
2013-03-15 14:05:00,70.2,42.7,29.78,North,355,2.0,4.0,37,0.00,,,0.00,Wunderground v.1.15,2013-03-15 19:05:00,
2013-03-15 14:10:00,70.1,43.3,29.77,North,355,2.0,2.0,38,0.00,,,0.00,Wunderground v.1.15,2013-03-15 19:10:00,
2013-03-15 14:15:00,70.3,43.5,29.77,North,355,1.0,18.0,38,0.00,,,0.00,Wunderground v.1.15,2013-03-15 19:15:00,
2013-03-15 14:25:00,70.7,43.8,29.77,North,355,2.0,2.0,38,0.00,,,0.00,Wunderground v.1.15,2013-03-15 19:25:00,
2013-03-15 14:30:00,71.1,44.9,29.77,North,355,2.0,2.0,39,0.00,,,0.00,Wunderground v.1.15,2013-03-15 19:30:00,
2013-03-15 14:35:00,71.4,43.8,29.77,North,355,1.0,4.0,37,0.00,,,0.00,Wunderground v.1.15,2013-03-15 19:35:00,
2013-03-15 14:40:00,71.3,43.7,29.76,North,355,2.0,2.0,37,0.00,,,0.00,Wunderground v.1.15,2013-03-15 19:40:00,
2013-03-15 14:45:00,71.0,43.4,29.76,North,355,2.0,18.0,37,0.00,,,0.00,Wunderground v.1.15,2013-03-15 19:45:00,
2013-03-15 14:55:00,70.6,43.7,29.75,North,355,3.0,18.0,38,0.00,,,0.00,Wunderground v.1.15,2013-03-15 19:55:00,
2013-03-15 15:00:00,70.6,43.7,29.75,North,355,2.0,18.0,38,0.00,,,0.00,Wunderground v.1.15,2013-03-15 20:00:00,
2013-03-15 15:05:00,70.6,44.4,29.75,North,355,2.0,18.0,39,0.00,,,0.00,Wunderground v.1.15,2013-03-15 20:05:00,
2013-03-15 15:10:00,70.5,44.3,29.75,North,360,3.0,3.0,39,0.00,,,0.00,Wunderground v.1.15,2013-03-15 20:10:00,
2013-03-15 15:15:00,70.7,43.8,29.75,North,360,4.0,4.0,38,0.00,,,0.00,Wunderground v.1.15,2013-03-15 20:15:00,
2013-03-15 15:20:00,71.3,45.7,29.74,NE,49,3.0,18.0,40,0.00,,,0.00,Wunderground v.1.15,2013-03-15 20:20:00,
2013-03-15 15:30:00,71.6,44.6,29.74,ENE,59,4.0,18.0,38,0.00,,,0.00,Wunderground v.1.15,2013-03-15 20:30:00,
2013-03-15 15:35:00,71.9,44.9,29.75,ENE,59,3.0,18.0,38,0.00,,,0.00,Wunderground v.1.15,2013-03-15 20:35:00,
2013-03-15 15:40:00,72.1,44.4,29.74,East,81,4.0,18.0,37,0.00,,,0.00,Wunderground v.1.15,2013-03-15 20:40:00,
2013-03-15 15:45:00,72.1,45.1,29.74,East,81,3.0,18.0,38,0.00,,,0.00,Wunderground v.1.15,2013-03-15 20:45:00,
2013-03-15 15:50:00,72.3,44.6,29.74,East,81,3.0,18.0,37,0.00,,,0.00,Wunderground v.1.15,2013-03-15 20:50:00,
2013-03-15 16:00:00,72.2,45.2,29.73,ENE,78,4.0,18.0,38,0.00,,,0.00,Wunderground v.1.15,2013-03-15 21:00:00,
2013-03-15 16:05:00,72.1,45.1,29.73,ENE,61,4.0,18.0,38,0.00,,,0.00,Wunderground v.1.15,2013-03-15 21:05:00,
2013-03-15 16:10:00,71.9,45.6,29.73,NE,55,4.0,18.0,39,0.00,,,0.00,Wunderground v.1.15,2013-03-15 21:10:00,
2013-03-15 16:15:00,71.7,44.7,29.73,ENE,57,5.0,18.0,38,0.00,,,0.00,Wunderground v.1.15,2013-03-15 21:15:00,
2013-03-15 16:20:00,71.9,44.9,29.73,ENE,74,4.0,18.0,38,0.00,,,0.00,Wunderground v.1.15,2013-03-15 21:20:00,
2013-03-15 16:25:00,72.0,44.3,29.73,ENE,62,5.0,18.0,37,0.00,,,0.00,Wunderground v.1.15,2013-03-15 21:25:00,
2013-03-15 16:35:00,71.2,44.3,29.73,NE,50,7.0,18.0,38,0.00,,,0.00,Wunderground v.1.15,2013-03-15 21:35:00,
2013-03-15 16:40:00,71.3,43.7,29.73,NE,51,7.0,7.0,37,0.00,,,0.00,Wunderground v.1.15,2013-03-15 21:40:00,
2013-03-15 16:45:00,71.0,44.1,29.74,NE,46,7.0,18.0,38,0.00,,,0.00,Wunderground v.1.15,2013-03-15 21:45:00,
2013-03-15 16:50:00,71.2,43.6,29.73,East,80,6.0,6.0,37,0.00,,,0.00,Wunderground v.1.15,2013-03-15 21:50:00,
2013-03-15 16:55:00,70.7,43.1,29.74,ENE,57,7.0,9.0,37,0.00,,,0.00,Wunderground v.1.15,2013-03-15 21:55:00,
2013-03-15 17:05:00,70.4,44.3,29.73,NE,52,7.0,18.0,39,0.00,,,0.00,Wunderground v.1.15,2013-03-15 22:05:00,
2013-03-15 17:10:00,70.4,43.6,29.73,NE,49,8.0,18.0,38,0.00,,,0.00,Wunderground v.1.15,2013-03-15 22:10:00,
2013-03-15 17:15:00,70.3,44.2,29.73,ENE,68,7.0,18.0,39,0.00,,,0.00,Wunderground v.1.15,2013-03-15 22:15:00,
2013-03-15 17:20:00,70.3,44.8,29.73,NE,44,7.0,18.0,40,0.00,,,0.00,Wunderground v.1.15,2013-03-15 22:20:00,
2013-03-15 17:25:00,70.1,45.3,29.73,NE,55,8.0,18.0,41,0.00,,,0.00,Wunderground v.1.15,2013-03-15 22:25:00,
2013-03-15 17:30:00,69.8,45.7,29.73,NE,55,8.0,18.0,42,0.00,,,0.00,Wunderground v.1.15,2013-03-15 22:30:00,
2013-03-15 17:40:00,69.6,46.1,29.73,NE,54,8.0,18.0,43,0.00,,,0.00,Wunderground v.1.15,2013-03-15 22:40:00,
2013-03-15 17:45:00,69.4,45.3,29.73,NE,42,9.0,18.0,42,0.00,,,0.00,Wunderground v.1.15,2013-03-15 22:45:00,
2013-03-15 17:50:00,69.4,45.9,29.73,ENE,61,9.0,9.0,43,0.00,,,0.00,Wunderground v.1.15,2013-03-15 22:50:00,
2013-03-15 17:55:00,69.7,46.2,29.73,ENE,75,8.0,18.0,43,0.00,,,0.00,Wunderground v.1.15,2013-03-15 22:55:00,
2013-03-15 18:00:00,69.2,46.9,29.73,NE,55,8.0,18.0,45,0.00,,,0.00,Wunderground v.1.15,2013-03-15 23:00:00,
2013-03-15 18:10:00,67.1,45.6,29.73,ENE,64,11.0,11.0,46,0.00,,,0.00,Wunderground v.1.15,2013-03-15 23:10:00,
2013-03-15 18:15:00,66.5,46.2,29.73,ENE,73,11.0,18.0,48,0.00,,,0.00,Wunderground v.1.15,2013-03-15 23:15:00,
2013-03-15 18:20:00,66.1,46.4,29.73,ENE,57,12.0,18.0,49,0.00,,,0.00,Wunderground v.1.15,2013-03-15 23:20:00,
2013-03-15 18:25:00,65.7,46.0,29.73,NE,52,12.0,18.0,49,0.00,,,0.00,Wunderground v.1.15,2013-03-15 23:25:00,
2013-03-15 18:30:00,65.5,45.8,29.74,ENE,61,10.0,18.0,49,0.00,,,0.00,Wunderground v.1.15,2013-03-15 23:30:00,
2013-03-15 18:35:00,65.2,46.1,29.73,NE,50,9.0,18.0,50,0.00,,,0.00,Wunderground v.1.15,2013-03-15 23:35:00,
2013-03-15 18:45:00,64.4,46.4,29.73,NE,51,11.0,18.0,52,0.00,,,0.00,Wunderground v.1.15,2013-03-15 23:45:00,
2013-03-15 18:50:00,63.9,46.9,29.73,NE,55,10.0,18.0,54,0.00,,,0.00,Wunderground v.1.15,2013-03-15 23:50:00,
2013-03-15 18:55:00,63.2,47.2,29.73,NE,49,11.0,18.0,56,0.00,,,0.00,Wunderground v.1.15,2013-03-15 23:55:00,
2013-03-15 19:00:00,62.6,47.1,29.74,NE,56,11.0,18.0,57,0.00,,,0.00,Wunderground v.1.15,2013-03-16 00:00:00,
2013-03-15 19:05:00,62.1,47.1,29.74,ENE,57,11.0,18.0,58,0.00,,,0.00,Wunderground v.1.15,2013-03-16 00:05:00,
2013-03-15 19:15:00,61.0,47.9,29.74,NE,53,11.0,13.0,62,0.00,,,0.00,Wunderground v.1.15,2013-03-16 00:15:00,
2013-03-15 19:20:00,60.3,48.1,29.74,NE,46,10.0,18.0,64,0.00,,,0.00,Wunderground v.1.15,2013-03-16 00:20:00,
2013-03-15 19:25:00,59.6,48.2,29.74,NE,47,9.0,18.0,66,0.00,,,0.00,Wunderground v.1.15,2013-03-16 00:25:00,
2013-03-15 19:30:00,59.1,47.3,29.74,NE,54,10.0,18.0,65,0.00,,,0.00,Wunderground v.1.15,2013-03-16 00:30:00,
2013-03-15 19:35:00,58.4,47.1,29.74,NE,43,10.0,18.0,66,0.00,,,0.00,Wunderground v.1.15,2013-03-16 00:35:00,
2013-03-15 19:40:00,57.6,46.7,29.74,NE,39,8.0,8.0,67,0.00,,,0.00,Wunderground v.1.15,2013-03-16 00:40:00,
2013-03-15 19:50:00,56.5,46.1,29.75,NNE,31,7.0,7.0,68,0.00,,,0.00,Wunderground v.1.15,2013-03-16 00:50:00,
2013-03-15 19:55:00,55.9,45.9,29.75,NNE,32,6.0,18.0,69,0.00,,,0.00,Wunderground v.1.15,2013-03-16 00:55:00,
2013-03-15 20:00:00,55.3,45.7,29.75,NE,34,5.0,5.0,70,0.00,,,0.00,Wunderground v.1.15,2013-03-16 01:00:00,
2013-03-15 20:05:00,54.8,45.9,29.76,NNE,31,5.0,18.0,72,0.00,,,0.00,Wunderground v.1.15,2013-03-16 01:05:00,
2013-03-15 20:10:00,54.0,45.2,29.76,NNE,26,5.0,5.0,72,0.00,,,0.00,Wunderground v.1.15,2013-03-16 01:10:00,
2013-03-15 20:19:00,53.3,45.2,29.77,NNE,27,6.0,18.0,74,0.00,,,0.00,Wunderground v.1.15,2013-03-16 01:19:00,
2013-03-15 20:24:00,52.9,45.2,29.77,NNE,20,6.0,18.0,75,0.00,,,0.00,Wunderground v.1.15,2013-03-16 01:24:00,
2013-03-15 20:29:00,52.5,45.2,29.78,NNE,29,6.0,18.0,76,0.00,,,0.00,Wunderground v.1.15,2013-03-16 01:29:00,
2013-03-15 20:34:00,52.3,45.0,29.79,NNE,16,7.0,18.0,76,0.00,,,0.00,Wunderground v.1.15,2013-03-16 01:34:00,
2013-03-15 20:39:00,52.1,45.1,29.79,NNE,23,8.0,18.0,77,0.00,,,0.00,Wunderground v.1.15,2013-03-16 01:39:00,
2013-03-15 20:44:00,52.0,45.4,29.80,NNE,28,7.0,18.0,78,0.00,,,0.00,Wunderground v.1.15,2013-03-16 01:44:00,
2013-03-15 20:50:00,51.9,45.3,29.81,North,11,8.0,18.0,78,0.00,,,0.00,Wunderground v.1.15,2013-03-16 01:50:00,
2013-03-15 20:55:00,51.8,45.2,29.81,NNE,25,9.0,18.0,78,0.00,,,0.00,Wunderground v.1.15,2013-03-16 01:55:00,
2013-03-15 21:00:00,51.7,45.4,29.81,NNE,24,9.0,9.0,79,0.00,,,0.00,Wunderground v.1.15,2013-03-16 02:00:00,
2013-03-15 21:05:00,51.4,45.1,29.82,NNE,25,9.0,18.0,79,0.00,,,0.00,Wunderground v.1.15,2013-03-16 02:05:00,
2013-03-15 21:10:00,51.3,45.3,29.82,NE,45,9.0,18.0,80,0.00,,,0.00,Wunderground v.1.15,2013-03-16 02:10:00,
2013-03-15 21:20:00,50.9,45.3,29.82,North,5,8.0,18.0,81,0.00,,,0.00,Wunderground v.1.15,2013-03-16 02:20:00,
2013-03-15 21:25:00,50.6,45.3,29.83,NNE,24,7.0,18.0,82,0.00,,,0.00,Wunderground v.1.15,2013-03-16 02:25:00,
2013-03-15 21:30:00,50.5,45.2,29.83,NNE,23,7.0,7.0,82,0.00,,,0.00,Wunderground v.1.15,2013-03-16 02:30:00,
2013-03-15 21:35:00,50.3,45.0,29.83,NNE,19,6.0,18.0,82,0.00,,,0.00,Wunderground v.1.15,2013-03-16 02:35:00,
2013-03-15 21:40:00,50.3,45.0,29.83,NNE,26,7.0,18.0,82,0.00,,,0.00,Wunderground v.1.15,2013-03-16 02:40:00,
2013-03-15 21:45:00,50.2,44.9,29.84,NNE,23,8.0,18.0,82,0.00,,,0.00,Wunderground v.1.15,2013-03-16 02:45:00,
2013-03-15 21:55:00,49.6,44.3,29.84,NNE,22,8.0,18.0,82,0.00,,,0.00,Wunderground v.1.15,2013-03-16 02:55:00,
2013-03-15 22:00:00,49.4,44.1,29.84,NNE,27,9.0,18.0,82,0.00,,,0.00,Wunderground v.1.15,2013-03-16 03:00:00,
2013-03-15 22:05:00,49.1,43.8,29.85,NNE,28,9.0,18.0,82,0.00,,,0.00,Wunderground v.1.15,2013-03-16 03:05:00,
2013-03-15 22:10:00,48.8,43.5,29.85,NNE,25,8.0,8.0,82,0.00,,,0.00,Wunderground v.1.15,2013-03-16 03:10:00,
2013-03-15 22:15:00,48.4,43.5,29.86,NNE,26,8.0,18.0,83,0.00,,,0.00,Wunderground v.1.15,2013-03-16 03:15:00,
2013-03-15 22:20:00,48.0,43.1,29.86,NNE,17,6.0,18.0,83,0.00,,,0.00,Wunderground v.1.15,2013-03-16 03:20:00,
2013-03-15 22:30:00,47.4,42.5,29.87,NNE,21,7.0,18.0,83,0.00,,,0.00,Wunderground v.1.15,2013-03-16 03:30:00,
2013-03-15 22:35:00,47.1,41.9,29.87,NNE,29,7.0,18.0,82,0.00,,,0.00,Wunderground v.1.15,2013-03-16 03:35:00,
2013-03-15 22:40:00,46.8,41.6,29.88,NE,35,8.0,18.0,82,0.00,,,0.00,Wunderground v.1.15,2013-03-16 03:40:00,
2013-03-15 22:45:00,46.5,41.0,29.88,NNE,13,8.0,18.0,81,0.00,,,0.00,Wunderground v.1.15,2013-03-16 03:45:00,
2013-03-15 22:50:00,46.3,40.8,29.88,NNE,18,8.0,18.0,81,0.00,,,0.00,Wunderground v.1.15,2013-03-16 03:50:00,
2013-03-15 23:00:00,45.9,40.4,29.89,NNE,18,10.0,18.0,81,0.00,,,0.00,Wunderground v.1.15,2013-03-16 04:00:00,
2013-03-15 23:05:00,45.6,40.4,29.89,NNE,25,10.0,18.0,82,0.00,,,0.00,Wunderground v.1.15,2013-03-16 04:05:00,
2013-03-15 23:10:00,45.2,40.3,29.89,NNE,22,9.0,9.0,83,0.00,,,0.00,Wunderground v.1.15,2013-03-16 04:10:00,
2013-03-15 23:15:00,44.9,40.4,29.89,NE,34,8.0,18.0,84,0.00,,,0.00,Wunderground v.1.15,2013-03-16 04:15:00,
2013-03-15 23:20:00,44.7,40.2,29.88,NNE,29,8.0,18.0,84,0.00,,,0.00,Wunderground v.1.15,2013-03-16 04:20:00,
2013-03-15 23:25:00,44.5,40.0,29.89,NNE,25,8.0,18.0,84,0.00,,,0.00,Wunderground v.1.15,2013-03-16 04:25:00,
2013-03-15 23:35:00,44.0,39.5,29.88,NNE,30,8.0,10.0,84,0.00,,,0.00,Wunderground v.1.15,2013-03-16 04:35:00,
2013-03-15 23:40:00,43.8,39.3,29.89,NE,34,8.0,18.0,84,0.00,,,0.00,Wunderground v.1.15,2013-03-16 04:40:00,
2013-03-15 23:45:00,43.6,39.1,29.89,NNE,20,8.0,18.0,84,0.00,,,0.00,Wunderground v.1.15,2013-03-16 04:45:00,
2013-03-15 23:50:00,43.4,38.6,29.89,NNE,18,8.0,18.0,83,0.00,,,0.00,Wunderground v.1.15,2013-03-16 04:50:00,
2013-03-15 23:55:00,43.2,38.4,29.89,North,10,9.0,18.0,83,0.00,,,0.00,Wunderground v.1.15,2013-03-16 04:55:00,